sensor_id;sensor_type;location;lat;lon;timestamp;temperature;humidity
37242;DHT22;23135;51.078;12.108;2023-06-04T00:01:12;8.70;99.90
37242;DHT22;23135;51.078;12.108;2023-06-04T00:03:37;8.60;99.90
37242;DHT22;23135;51.078;12.108;2023-06-04T00:06:03;8.60;99.90
37242;DHT22;23135;51.078;12.108;2023-06-04T00:08:28;8.50;99.90
37242;DHT22;23135;51.078;12.108;2023-06-04T00:10:54;8.50;99.90
37242;DHT22;23135;51.078;12.108;2023-06-04T00:13:19;8.50;99.90
37242;DHT22;23135;51.078;12.108;2023-06-04T00:15:45;8.50;99.90
37242;DHT22;23135;51.078;12.108;2023-06-04T00:18:10;8.40;99.90
37242;DHT22;23135;51.078;12.108;2023-06-04T00:20:38;8.30;99.90
37242;DHT22;23135;51.078;12.108;2023-06-04T00:23:04;8.30;99.90
37242;DHT22;23135;51.078;12.108;2023-06-04T00:25:31;8.30;99.90
37242;DHT22;23135;51.078;12.108;2023-06-04T00:27:56;8.20;99.90
37242;DHT22;23135;51.078;12.108;2023-06-04T00:30:22;8.20;99.90
37242;DHT22;23135;51.078;12.108;2023-06-04T00:32:47;8.20;99.90
37242;DHT22;23135;51.078;12.108;2023-06-04T00:35:13;8.10;99.90
37242;DHT22;23135;51.078;12.108;2023-06-04T00:37:39;8.10;99.90
37242;DHT22;23135;51.078;12.108;2023-06-04T00:40:05;8.10;99.90
37242;DHT22;23135;51.078;12.108;2023-06-04T00:42:31;8.00;99.90
37242;DHT22;23135;51.078;12.108;2023-06-04T00:44:58;8.00;99.90
37242;DHT22;23135;51.078;12.108;2023-06-04T00:47:23;7.90;99.90
37242;DHT22;23135;51.078;12.108;2023-06-04T00:49:49;7.80;99.90
37242;DHT22;23135;51.078;12.108;2023-06-04T00:52:16;7.80;99.90
37242;DHT22;23135;51.078;12.108;2023-06-04T00:54:42;7.70;99.90
37242;DHT22;23135;51.078;12.108;2023-06-04T00:57:08;7.80;99.90
37242;DHT22;23135;51.078;12.108;2023-06-04T00:59:38;7.70;99.90
37242;DHT22;23135;51.078;12.108;2023-06-04T01:02:21;7.60;99.90
37242;DHT22;23135;51.078;12.108;2023-06-04T01:07:22;7.50;99.90
37242;DHT22;23135;51.078;12.108;2023-06-04T01:09:49;7.50;99.90
37242;DHT22;23135;51.078;12.108;2023-06-04T01:12:15;7.60;99.90
37242;DHT22;23135;51.078;12.108;2023-06-04T01:14:41;7.60;99.90
37242;DHT22;23135;51.078;12.108;2023-06-04T01:25:33;7.50;99.90
37242;DHT22;23135;51.078;12.108;2023-06-04T01:27:59;7.40;99.90
37242;DHT22;23135;51.078;12.108;2023-06-04T01:30:37;7.40;99.90
37242;DHT22;23135;51.078;12.108;2023-06-04T01:33:13;7.30;99.90
37242;DHT22;23135;51.078;12.108;2023-06-04T01:35:39;7.20;99.90
37242;DHT22;23135;51.078;12.108;2023-06-04T01:38:06;7.10;99.90
37242;DHT22;23135;51.078;12.108;2023-06-04T01:40:32;7.10;99.90
37242;DHT22;23135;51.078;12.108;2023-06-04T01:42:58;7.10;99.90
37242;DHT22;23135;51.078;12.108;2023-06-04T01:45:27;7.10;99.90
37242;DHT22;23135;51.078;12.108;2023-06-04T01:47:54;7.00;99.90
37242;DHT22;23135;51.078;12.108;2023-06-04T01:50:20;7.10;99.90
37242;DHT22;23135;51.078;12.108;2023-06-04T01:52:46;7.10;99.90
37242;DHT22;23135;51.078;12.108;2023-06-04T01:55:14;7.00;99.90
37242;DHT22;23135;51.078;12.108;2023-06-04T01:57:45;7.00;99.90
37242;DHT22;23135;51.078;12.108;2023-06-04T02:00:12;6.90;99.90
37242;DHT22;23135;51.078;12.108;2023-06-04T02:02:38;6.90;99.90
37242;DHT22;23135;51.078;12.108;2023-06-04T02:05:05;6.80;99.90
37242;DHT22;23135;51.078;12.108;2023-06-04T02:07:37;6.80;99.90
37242;DHT22;23135;51.078;12.108;2023-06-04T02:10:14;6.80;99.90
37242;DHT22;23135;51.078;12.108;2023-06-04T02:12:51;6.90;99.90
37242;DHT22;23135;51.078;12.108;2023-06-04T02:15:17;6.80;99.90
37242;DHT22;23135;51.078;12.108;2023-06-04T02:17:43;6.80;99.90
37242;DHT22;23135;51.078;12.108;2023-06-04T02:20:11;6.80;99.90
37242;DHT22;23135;51.078;12.108;2023-06-04T02:22:37;6.80;99.90
37242;DHT22;23135;51.078;12.108;2023-06-04T02:25:03;6.70;99.90
37242;DHT22;23135;51.078;12.108;2023-06-04T02:27:29;6.70;99.90
37242;DHT22;23135;51.078;12.108;2023-06-04T02:29:55;6.70;99.90
37242;DHT22;23135;51.078;12.108;2023-06-04T02:32:20;6.70;99.90
37242;DHT22;23135;51.078;12.108;2023-06-04T02:34:46;6.60;99.90
37242;DHT22;23135;51.078;12.108;2023-06-04T02:37:11;6.60;99.90
37242;DHT22;23135;51.078;12.108;2023-06-04T02:39:37;6.60;99.90
37242;DHT22;23135;51.078;12.108;2023-06-04T02:42:02;6.60;99.90
37242;DHT22;23135;51.078;12.108;2023-06-04T02:44:28;6.60;99.90
37242;DHT22;23135;51.078;12.108;2023-06-04T02:46:55;6.60;99.90
37242;DHT22;23135;51.078;12.108;2023-06-04T02:49:21;6.60;99.90
37242;DHT22;23135;51.078;12.108;2023-06-04T02:51:47;6.60;99.90
37242;DHT22;23135;51.078;12.108;2023-06-04T02:54:12;6.60;99.90
37242;DHT22;23135;51.078;12.108;2023-06-04T02:56:38;6.50;99.90
37242;DHT22;23135;51.078;12.108;2023-06-04T02:59:04;6.50;99.90
37242;DHT22;23135;51.078;12.108;2023-06-04T03:01:30;6.50;99.90
37242;DHT22;23135;51.078;12.108;2023-06-04T03:03:56;6.50;99.90
37242;DHT22;23135;51.078;12.108;2023-06-04T03:06:29;6.50;99.90
37242;DHT22;23135;51.078;12.108;2023-06-04T03:08:55;6.50;99.90
37242;DHT22;23135;51.078;12.108;2023-06-04T03:11:21;6.50;99.90
37242;DHT22;23135;51.078;12.108;2023-06-04T03:13:48;6.50;99.90
37242;DHT22;23135;51.078;12.108;2023-06-04T03:16:14;6.50;99.90
37242;DHT22;23135;51.078;12.108;2023-06-04T03:18:40;6.50;99.90
37242;DHT22;23135;51.078;12.108;2023-06-04T03:21:07;6.50;99.90
37242;DHT22;23135;51.078;12.108;2023-06-04T03:23:33;6.50;99.90
37242;DHT22;23135;51.078;12.108;2023-06-04T03:26:03;6.50;99.90
37242;DHT22;23135;51.078;12.108;2023-06-04T03:28:29;6.40;99.90
37242;DHT22;23135;51.078;12.108;2023-06-04T03:30:55;6.40;99.90
37242;DHT22;23135;51.078;12.108;2023-06-04T03:33:21;6.40;99.90
37242;DHT22;23135;51.078;12.108;2023-06-04T03:35:46;6.40;99.90
37242;DHT22;23135;51.078;12.108;2023-06-04T03:38:14;6.50;99.90
37242;DHT22;23135;51.078;12.108;2023-06-04T03:40:40;6.50;99.90
37242;DHT22;23135;51.078;12.108;2023-06-04T03:43:06;6.60;99.90
37242;DHT22;23135;51.078;12.108;2023-06-04T03:45:31;6.60;99.90
37242;DHT22;23135;51.078;12.108;2023-06-04T03:47:57;6.60;99.90
37242;DHT22;23135;51.078;12.108;2023-06-04T03:50:22;6.60;99.90
37242;DHT22;23135;51.078;12.108;2023-06-04T03:52:49;6.70;99.90
37242;DHT22;23135;51.078;12.108;2023-06-04T03:55:15;6.70;99.90
37242;DHT22;23135;51.078;12.108;2023-06-04T03:57:40;6.80;99.90
37242;DHT22;23135;51.078;12.108;2023-06-04T04:00:07;6.80;99.90
37242;DHT22;23135;51.078;12.108;2023-06-04T04:02:37;6.80;99.90
37242;DHT22;23135;51.078;12.108;2023-06-04T04:05:03;6.80;99.90
37242;DHT22;23135;51.078;12.108;2023-06-04T04:07:28;6.70;99.90
37242;DHT22;23135;51.078;12.108;2023-06-04T04:09:54;6.70;99.90
37242;DHT22;23135;51.078;12.108;2023-06-04T04:12:19;6.80;99.90
37242;DHT22;23135;51.078;12.108;2023-06-04T04:14:45;6.80;99.90
37242;DHT22;23135;51.078;12.108;2023-06-04T04:17:15;6.80;99.90
37242;DHT22;23135;51.078;12.108;2023-06-04T04:19:41;6.90;99.90
37242;DHT22;23135;51.078;12.108;2023-06-04T04:22:06;6.90;99.90
37242;DHT22;23135;51.078;12.108;2023-06-04T04:24:34;7.00;99.90
37242;DHT22;23135;51.078;12.108;2023-06-04T04:27:02;7.10;99.90
37242;DHT22;23135;51.078;12.108;2023-06-04T04:29:29;7.20;99.90
37242;DHT22;23135;51.078;12.108;2023-06-04T04:31:58;7.20;99.90
37242;DHT22;23135;51.078;12.108;2023-06-04T04:34:36;7.30;99.90
37242;DHT22;23135;51.078;12.108;2023-06-04T04:37:03;7.50;99.90
37242;DHT22;23135;51.078;12.108;2023-06-04T04:39:28;7.60;99.90
37242;DHT22;23135;51.078;12.108;2023-06-04T04:41:54;7.70;99.90
37242;DHT22;23135;51.078;12.108;2023-06-04T04:44:21;7.80;99.90
37242;DHT22;23135;51.078;12.108;2023-06-04T04:46:48;7.90;99.90
37242;DHT22;23135;51.078;12.108;2023-06-04T04:49:13;8.00;99.90
37242;DHT22;23135;51.078;12.108;2023-06-04T04:51:39;8.10;99.90
37242;DHT22;23135;51.078;12.108;2023-06-04T04:54:05;8.20;99.90
37242;DHT22;23135;51.078;12.108;2023-06-04T04:56:33;8.30;99.90
37242;DHT22;23135;51.078;12.108;2023-06-04T04:58:59;8.40;99.90
37242;DHT22;23135;51.078;12.108;2023-06-04T05:01:25;8.50;99.90
37242;DHT22;23135;51.078;12.108;2023-06-04T05:03:51;8.60;99.90
37242;DHT22;23135;51.078;12.108;2023-06-04T05:06:16;8.70;99.90
37242;DHT22;23135;51.078;12.108;2023-06-04T05:08:42;8.80;99.90
37242;DHT22;23135;51.078;12.108;2023-06-04T05:11:08;8.90;99.90
37242;DHT22;23135;51.078;12.108;2023-06-04T05:13:33;9.00;99.90
37242;DHT22;23135;51.078;12.108;2023-06-04T05:15:59;9.10;99.90
37242;DHT22;23135;51.078;12.108;2023-06-04T05:18:30;9.20;99.90
37242;DHT22;23135;51.078;12.108;2023-06-04T05:20:55;9.30;99.90
37242;DHT22;23135;51.078;12.108;2023-06-04T05:23:21;9.40;99.90
37242;DHT22;23135;51.078;12.108;2023-06-04T05:25:46;9.50;99.90
37242;DHT22;23135;51.078;12.108;2023-06-04T05:28:15;9.60;99.90
37242;DHT22;23135;51.078;12.108;2023-06-04T05:30:41;9.70;99.90
37242;DHT22;23135;51.078;12.108;2023-06-04T05:33:07;9.80;99.90
37242;DHT22;23135;51.078;12.108;2023-06-04T05:35:45;10.00;99.90
37242;DHT22;23135;51.078;12.108;2023-06-04T05:38:11;10.10;99.90
37242;DHT22;23135;51.078;12.108;2023-06-04T05:40:40;10.20;99.90
37242;DHT22;23135;51.078;12.108;2023-06-04T05:43:06;10.50;99.90
37242;DHT22;23135;51.078;12.108;2023-06-04T05:45:32;10.90;99.90
37242;DHT22;23135;51.078;12.108;2023-06-04T05:47:58;11.20;99.90
37242;DHT22;23135;51.078;12.108;2023-06-04T05:50:23;11.60;99.90
37242;DHT22;23135;51.078;12.108;2023-06-04T05:52:49;11.90;99.90
37242;DHT22;23135;51.078;12.108;2023-06-04T05:55:14;12.20;99.90
37242;DHT22;23135;51.078;12.108;2023-06-04T05:57:42;12.50;99.90
37242;DHT22;23135;51.078;12.108;2023-06-04T06:00:07;12.80;99.90
37242;DHT22;23135;51.078;12.108;2023-06-04T06:02:36;13.10;99.90
37242;DHT22;23135;51.078;12.108;2023-06-04T06:05:04;13.50;99.90
37242;DHT22;23135;51.078;12.108;2023-06-04T06:07:33;13.80;99.90
37242;DHT22;23135;51.078;12.108;2023-06-04T06:09:58;14.10;99.90
37242;DHT22;23135;51.078;12.108;2023-06-04T06:12:24;14.40;99.90
37242;DHT22;23135;51.078;12.108;2023-06-04T06:14:49;14.70;99.90
37242;DHT22;23135;51.078;12.108;2023-06-04T06:17:15;15.00;99.90
37242;DHT22;23135;51.078;12.108;2023-06-04T06:19:40;15.20;99.90
37242;DHT22;23135;51.078;12.108;2023-06-04T06:22:06;15.30;99.80
37242;DHT22;23135;51.078;12.108;2023-06-04T06:24:32;15.60;99.90
37242;DHT22;23135;51.078;12.108;2023-06-04T06:26:57;15.70;97.50
37242;DHT22;23135;51.078;12.108;2023-06-04T06:29:23;15.60;97.50
37242;DHT22;23135;51.078;12.108;2023-06-04T06:31:49;15.60;98.20
37242;DHT22;23135;51.078;12.108;2023-06-04T06:34:14;15.80;97.00
37242;DHT22;23135;51.078;12.108;2023-06-04T06:36:40;16.10;97.00
37242;DHT22;23135;51.078;12.108;2023-06-04T06:39:05;16.40;96.50
37242;DHT22;23135;51.078;12.108;2023-06-04T06:41:31;16.70;96.30
37242;DHT22;23135;51.078;12.108;2023-06-04T06:43:57;16.80;95.30
37242;DHT22;23135;51.078;12.108;2023-06-04T06:46:23;17.00;94.60
37242;DHT22;23135;51.078;12.108;2023-06-04T06:48:48;17.20;93.90
37242;DHT22;23135;51.078;12.108;2023-06-04T06:51:14;17.40;93.10
37242;DHT22;23135;51.078;12.108;2023-06-04T06:53:40;17.70;93.50
37242;DHT22;23135;51.078;12.108;2023-06-04T06:56:06;18.00;93.10
37242;DHT22;23135;51.078;12.108;2023-06-04T06:58:32;18.00;92.50
37242;DHT22;23135;51.078;12.108;2023-06-04T07:00:57;18.00;92.10
37242;DHT22;23135;51.078;12.108;2023-06-04T07:03:23;18.20;92.20
37242;DHT22;23135;51.078;12.108;2023-06-04T07:05:48;18.50;92.60
37242;DHT22;23135;51.078;12.108;2023-06-04T07:08:14;18.70;92.00
37242;DHT22;23135;51.078;12.108;2023-06-04T07:10:39;18.90;91.30
37242;DHT22;23135;51.078;12.108;2023-06-04T07:13:05;19.00;91.30
37242;DHT22;23135;51.078;12.108;2023-06-04T07:15:31;19.00;90.30
37242;DHT22;23135;51.078;12.108;2023-06-04T07:17:56;19.30;90.80
37242;DHT22;23135;51.078;12.108;2023-06-04T07:20:22;19.50;90.30
37242;DHT22;23135;51.078;12.108;2023-06-04T07:22:47;19.50;88.90
37242;DHT22;23135;51.078;12.108;2023-06-04T07:25:13;19.50;88.80
37242;DHT22;23135;51.078;12.108;2023-06-04T07:27:39;19.60;87.80
37242;DHT22;23135;51.078;12.108;2023-06-04T07:30:06;19.90;88.90
37242;DHT22;23135;51.078;12.108;2023-06-04T07:32:32;20.10;88.80
37242;DHT22;23135;51.078;12.108;2023-06-04T07:34:57;20.20;86.60
37242;DHT22;23135;51.078;12.108;2023-06-04T07:37:23;20.20;85.20
37242;DHT22;23135;51.078;12.108;2023-06-04T07:39:48;20.30;87.50
37242;DHT22;23135;51.078;12.108;2023-06-04T07:42:14;20.30;86.00
37242;DHT22;23135;51.078;12.108;2023-06-04T07:44:40;20.30;84.30
37242;DHT22;23135;51.078;12.108;2023-06-04T07:47:05;20.10;84.30
37242;DHT22;23135;51.078;12.108;2023-06-04T07:49:31;20.00;85.30
37242;DHT22;23135;51.078;12.108;2023-06-04T07:51:56;20.20;85.10
37242;DHT22;23135;51.078;12.108;2023-06-04T07:54:22;20.50;85.80
37242;DHT22;23135;51.078;12.108;2023-06-04T07:56:48;20.60;84.60
37242;DHT22;23135;51.078;12.108;2023-06-04T07:59:14;20.70;82.40
37242;DHT22;23135;51.078;12.108;2023-06-04T08:01:39;20.90;85.40
37242;DHT22;23135;51.078;12.108;2023-06-04T08:04:05;21.30;85.80
37242;DHT22;23135;51.078;12.108;2023-06-04T08:06:31;21.40;84.20
37242;DHT22;23135;51.078;12.108;2023-06-04T08:08:56;21.50;82.70
37242;DHT22;23135;51.078;12.108;2023-06-04T08:11:22;21.30;79.90
37242;DHT22;23135;51.078;12.108;2023-06-04T08:13:50;21.10;81.00
37242;DHT22;23135;51.078;12.108;2023-06-04T08:16:15;21.20;80.70
37242;DHT22;23135;51.078;12.108;2023-06-04T08:18:41;21.20;81.10
37242;DHT22;23135;51.078;12.108;2023-06-04T08:21:11;21.30;79.70
37242;DHT22;23135;51.078;12.108;2023-06-04T08:23:37;21.30;79.00
37242;DHT22;23135;51.078;12.108;2023-06-04T08:26:02;21.30;80.60
37242;DHT22;23135;51.078;12.108;2023-06-04T08:28:28;21.50;81.30
37242;DHT22;23135;51.078;12.108;2023-06-04T08:30:53;21.50;79.00
37242;DHT22;23135;51.078;12.108;2023-06-04T08:33:19;21.50;80.60
37242;DHT22;23135;51.078;12.108;2023-06-04T08:35:44;21.70;77.70
37242;DHT22;23135;51.078;12.108;2023-06-04T08:38:10;21.50;77.70
37242;DHT22;23135;51.078;12.108;2023-06-04T08:40:36;21.60;78.10
37242;DHT22;23135;51.078;12.108;2023-06-04T08:43:02;21.80;77.20
37242;DHT22;23135;51.078;12.108;2023-06-04T08:45:27;22.00;76.70
37242;DHT22;23135;51.078;12.108;2023-06-04T08:47:54;22.20;77.00
37242;DHT22;23135;51.078;12.108;2023-06-04T08:50:25;22.20;76.00
37242;DHT22;23135;51.078;12.108;2023-06-04T08:52:55;22.20;75.80
37242;DHT22;23135;51.078;12.108;2023-06-04T08:55:21;22.20;74.20
37242;DHT22;23135;51.078;12.108;2023-06-04T08:57:49;22.20;74.30
37242;DHT22;23135;51.078;12.108;2023-06-04T09:00:16;22.20;74.20
37242;DHT22;23135;51.078;12.108;2023-06-04T09:02:42;22.40;74.60
37242;DHT22;23135;51.078;12.108;2023-06-04T09:05:08;22.50;73.40
37242;DHT22;23135;51.078;12.108;2023-06-04T09:07:39;22.30;70.80
37242;DHT22;23135;51.078;12.108;2023-06-04T09:10:07;22.10;72.80
37242;DHT22;23135;51.078;12.108;2023-06-04T09:12:36;22.40;73.60
37242;DHT22;23135;51.078;12.108;2023-06-04T09:15:02;22.50;70.70
37242;DHT22;23135;51.078;12.108;2023-06-04T09:17:28;22.60;72.40
37242;DHT22;23135;51.078;12.108;2023-06-04T09:19:54;22.50;73.30
37242;DHT22;23135;51.078;12.108;2023-06-04T09:22:32;22.40;72.40
37242;DHT22;23135;51.078;12.108;2023-06-04T09:24:57;22.60;72.00
37242;DHT22;23135;51.078;12.108;2023-06-04T09:27:23;22.80;72.20
37242;DHT22;23135;51.078;12.108;2023-06-04T09:29:52;22.80;70.20
37242;DHT22;23135;51.078;12.108;2023-06-04T09:32:29;22.70;70.90
37242;DHT22;23135;51.078;12.108;2023-06-04T09:35:14;22.80;71.90
37242;DHT22;23135;51.078;12.108;2023-06-04T09:37:41;23.00;70.10
37242;DHT22;23135;51.078;12.108;2023-06-04T09:40:08;23.20;69.60
37242;DHT22;23135;51.078;12.108;2023-06-04T09:42:44;23.40;71.30
37242;DHT22;23135;51.078;12.108;2023-06-04T09:45:10;23.50;71.40
37242;DHT22;23135;51.078;12.108;2023-06-04T09:47:43;23.70;70.10
37242;DHT22;23135;51.078;12.108;2023-06-04T09:50:11;23.40;69.70
37242;DHT22;23135;51.078;12.108;2023-06-04T09:52:37;23.60;70.20
37242;DHT22;23135;51.078;12.108;2023-06-04T09:55:18;23.80;69.90
37242;DHT22;23135;51.078;12.108;2023-06-04T09:57:48;23.70;70.40
37242;DHT22;23135;51.078;12.108;2023-06-04T10:00:22;23.70;67.80
37242;DHT22;23135;51.078;12.108;2023-06-04T10:02:49;23.90;68.00
37242;DHT22;23135;51.078;12.108;2023-06-04T10:05:15;24.10;68.30
37242;DHT22;23135;51.078;12.108;2023-06-04T10:07:45;24.50;68.10
37242;DHT22;23135;51.078;12.108;2023-06-04T10:10:14;24.70;66.10
37242;DHT22;23135;51.078;12.108;2023-06-04T10:12:41;24.70;64.50
37242;DHT22;23135;51.078;12.108;2023-06-04T10:15:13;24.40;64.30
37242;DHT22;23135;51.078;12.108;2023-06-04T10:17:39;24.10;64.90
37242;DHT22;23135;51.078;12.108;2023-06-04T10:20:10;24.20;65.70
37242;DHT22;23135;51.078;12.108;2023-06-04T10:22:38;24.30;65.40
37242;DHT22;23135;51.078;12.108;2023-06-04T10:25:04;24.50;64.70
37242;DHT22;23135;51.078;12.108;2023-06-04T10:27:31;24.50;66.50
37242;DHT22;23135;51.078;12.108;2023-06-04T10:29:57;24.40;64.60
37242;DHT22;23135;51.078;12.108;2023-06-04T10:32:29;24.50;63.60
37242;DHT22;23135;51.078;12.108;2023-06-04T10:34:55;24.70;65.20
37242;DHT22;23135;51.078;12.108;2023-06-04T10:37:23;24.90;63.40
37242;DHT22;23135;51.078;12.108;2023-06-04T10:39:53;25.00;62.60
37242;DHT22;23135;51.078;12.108;2023-06-04T10:42:19;25.00;61.80
37242;DHT22;23135;51.078;12.108;2023-06-04T10:44:48;25.30;62.20
37242;DHT22;23135;51.078;12.108;2023-06-04T10:47:22;25.70;62.50
37242;DHT22;23135;51.078;12.108;2023-06-04T10:49:50;25.50;61.50
37242;DHT22;23135;51.078;12.108;2023-06-04T10:52:16;25.70;61.10
37242;DHT22;23135;51.078;12.108;2023-06-04T10:54:43;25.80;61.00
37242;DHT22;23135;51.078;12.108;2023-06-04T10:57:14;25.60;60.20
37242;DHT22;23135;51.078;12.108;2023-06-04T10:59:41;25.50;61.60
37242;DHT22;23135;51.078;12.108;2023-06-04T11:02:08;25.60;61.10
37242;DHT22;23135;51.078;12.108;2023-06-04T11:04:35;25.70;61.20
37242;DHT22;23135;51.078;12.108;2023-06-04T11:07:07;25.70;58.70
37242;DHT22;23135;51.078;12.108;2023-06-04T11:09:36;25.80;56.60
37242;DHT22;23135;51.078;12.108;2023-06-04T11:12:04;25.80;56.00
37242;DHT22;23135;51.078;12.108;2023-06-04T11:14:30;26.30;55.30
37242;DHT22;23135;51.078;12.108;2023-06-04T11:16:56;26.40;56.10
37242;DHT22;23135;51.078;12.108;2023-06-04T11:19:22;26.10;57.00
37242;DHT22;23135;51.078;12.108;2023-06-04T11:21:49;25.70;54.40
37242;DHT22;23135;51.078;12.108;2023-06-04T11:24:16;25.30;53.30
37242;DHT22;23135;51.078;12.108;2023-06-04T11:26:41;25.30;54.60
37242;DHT22;23135;51.078;12.108;2023-06-04T11:29:10;25.50;55.30
37242;DHT22;23135;51.078;12.108;2023-06-04T11:31:47;25.80;56.40
37242;DHT22;23135;51.078;12.108;2023-06-04T11:34:29;25.80;56.10
37242;DHT22;23135;51.078;12.108;2023-06-04T11:36:55;25.70;57.80
37242;DHT22;23135;51.078;12.108;2023-06-04T11:39:34;25.80;57.20
37242;DHT22;23135;51.078;12.108;2023-06-04T11:42:04;25.80;57.10
37242;DHT22;23135;51.078;12.108;2023-06-04T11:44:31;25.80;57.30
37242;DHT22;23135;51.078;12.108;2023-06-04T11:46:56;26.00;55.90
37242;DHT22;23135;51.078;12.108;2023-06-04T11:49:22;26.00;56.90
37242;DHT22;23135;51.078;12.108;2023-06-04T11:51:52;25.90;56.90
37242;DHT22;23135;51.078;12.108;2023-06-04T11:54:19;26.00;57.50
37242;DHT22;23135;51.078;12.108;2023-06-04T11:56:48;26.30;57.80
37242;DHT22;23135;51.078;12.108;2023-06-04T11:59:15;26.60;55.40
37242;DHT22;23135;51.078;12.108;2023-06-04T12:01:42;26.10;56.30
37242;DHT22;23135;51.078;12.108;2023-06-04T12:04:15;25.80;56.80
37242;DHT22;23135;51.078;12.108;2023-06-04T12:07:11;25.70;55.10
37242;DHT22;23135;51.078;12.108;2023-06-04T12:09:37;26.00;55.20
37242;DHT22;23135;51.078;12.108;2023-06-04T12:12:07;26.10;55.40
37242;DHT22;23135;51.078;12.108;2023-06-04T12:14:33;26.20;54.40
37242;DHT22;23135;51.078;12.108;2023-06-04T12:17:01;26.50;55.30
37242;DHT22;23135;51.078;12.108;2023-06-04T12:19:28;26.30;57.90
37242;DHT22;23135;51.078;12.108;2023-06-04T12:22:04;26.20;56.40
37242;DHT22;23135;51.078;12.108;2023-06-04T12:24:35;26.20;55.80
37242;DHT22;23135;51.078;12.108;2023-06-04T12:27:11;26.30;55.00
37242;DHT22;23135;51.078;12.108;2023-06-04T12:29:36;26.10;55.50
37242;DHT22;23135;51.078;12.108;2023-06-04T12:32:05;26.20;53.70
37242;DHT22;23135;51.078;12.108;2023-06-04T12:34:33;26.60;55.30
37242;DHT22;23135;51.078;12.108;2023-06-04T12:36:59;26.70;54.70
37242;DHT22;23135;51.078;12.108;2023-06-04T12:39:25;27.10;55.60
37242;DHT22;23135;51.078;12.108;2023-06-04T12:41:50;26.90;54.60
37242;DHT22;23135;51.078;12.108;2023-06-04T12:44:16;26.50;53.80
37242;DHT22;23135;51.078;12.108;2023-06-04T12:46:42;26.10;52.20
37242;DHT22;23135;51.078;12.108;2023-06-04T12:49:07;26.00;53.30
37242;DHT22;23135;51.078;12.108;2023-06-04T12:51:33;26.00;53.50
37242;DHT22;23135;51.078;12.108;2023-06-04T12:53:58;26.10;52.90
37242;DHT22;23135;51.078;12.108;2023-06-04T12:56:26;26.50;51.20
37242;DHT22;23135;51.078;12.108;2023-06-04T12:58:52;26.60;52.00
37242;DHT22;23135;51.078;12.108;2023-06-04T13:01:17;26.60;54.40
37242;DHT22;23135;51.078;12.108;2023-06-04T13:03:43;26.50;53.90
37242;DHT22;23135;51.078;12.108;2023-06-04T13:06:08;26.40;54.40
37242;DHT22;23135;51.078;12.108;2023-06-04T13:08:35;26.30;53.30
37242;DHT22;23135;51.078;12.108;2023-06-04T13:11:01;26.50;53.10
37242;DHT22;23135;51.078;12.108;2023-06-04T13:13:27;27.10;52.00
37242;DHT22;23135;51.078;12.108;2023-06-04T13:15:52;27.30;51.90
37242;DHT22;23135;51.078;12.108;2023-06-04T13:18:18;27.30;51.50
37242;DHT22;23135;51.078;12.108;2023-06-04T13:20:44;27.00;52.60
37242;DHT22;23135;51.078;12.108;2023-06-04T13:23:09;26.70;52.10
37242;DHT22;23135;51.078;12.108;2023-06-04T13:25:37;26.50;52.50
37242;DHT22;23135;51.078;12.108;2023-06-04T13:28:04;26.40;52.50
37242;DHT22;23135;51.078;12.108;2023-06-04T13:30:29;26.50;52.40
37242;DHT22;23135;51.078;12.108;2023-06-04T13:32:55;26.80;53.60
37242;DHT22;23135;51.078;12.108;2023-06-04T13:35:21;27.00;53.10
37242;DHT22;23135;51.078;12.108;2023-06-04T13:37:47;26.90;53.00
37242;DHT22;23135;51.078;12.108;2023-06-04T13:40:13;26.70;52.00
37242;DHT22;23135;51.078;12.108;2023-06-04T13:42:39;26.40;52.90
37242;DHT22;23135;51.078;12.108;2023-06-04T13:45:05;26.60;52.70
37242;DHT22;23135;51.078;12.108;2023-06-04T13:47:31;26.50;52.60
37242;DHT22;23135;51.078;12.108;2023-06-04T13:49:57;26.30;53.00
37242;DHT22;23135;51.078;12.108;2023-06-04T13:52:23;26.10;52.10
37242;DHT22;23135;51.078;12.108;2023-06-04T13:54:48;26.20;53.20
37242;DHT22;23135;51.078;12.108;2023-06-04T13:57:14;26.50;53.50
37242;DHT22;23135;51.078;12.108;2023-06-04T13:59:39;26.60;52.90
37242;DHT22;23135;51.078;12.108;2023-06-04T14:02:06;26.70;52.40
37242;DHT22;23135;51.078;12.108;2023-06-04T14:04:32;26.80;52.60
37242;DHT22;23135;51.078;12.108;2023-06-04T14:06:58;26.60;51.80
37242;DHT22;23135;51.078;12.108;2023-06-04T14:09:23;26.30;52.40
37242;DHT22;23135;51.078;12.108;2023-06-04T14:11:49;26.10;51.70
37242;DHT22;23135;51.078;12.108;2023-06-04T14:14:17;26.00;54.10
37242;DHT22;23135;51.078;12.108;2023-06-04T14:16:44;26.00;53.10
37242;DHT22;23135;51.078;12.108;2023-06-04T14:19:10;26.20;52.30
37242;DHT22;23135;51.078;12.108;2023-06-04T14:21:35;26.60;52.00
37242;DHT22;23135;51.078;12.108;2023-06-04T14:24:02;26.70;53.30
37242;DHT22;23135;51.078;12.108;2023-06-04T14:26:27;26.60;53.60
37242;DHT22;23135;51.078;12.108;2023-06-04T14:28:54;26.30;53.00
37242;DHT22;23135;51.078;12.108;2023-06-04T14:31:19;26.20;53.00
37242;DHT22;23135;51.078;12.108;2023-06-04T14:33:45;26.10;53.20
37242;DHT22;23135;51.078;12.108;2023-06-04T14:36:10;25.80;53.00
37242;DHT22;23135;51.078;12.108;2023-06-04T14:38:36;25.80;52.40
37242;DHT22;23135;51.078;12.108;2023-06-04T14:41:02;25.60;53.00
37242;DHT22;23135;51.078;12.108;2023-06-04T14:43:28;25.40;52.60
37242;DHT22;23135;51.078;12.108;2023-06-04T14:45:54;25.10;55.20
37242;DHT22;23135;51.078;12.108;2023-06-04T14:48:19;24.80;54.20
37242;DHT22;23135;51.078;12.108;2023-06-04T14:50:45;24.40;52.00
37242;DHT22;23135;51.078;12.108;2023-06-04T14:53:12;24.20;53.80
37242;DHT22;23135;51.078;12.108;2023-06-04T14:55:38;23.90;52.80
37242;DHT22;23135;51.078;12.108;2023-06-04T14:58:04;23.90;53.20
37242;DHT22;23135;51.078;12.108;2023-06-04T15:00:30;23.90;54.30
37242;DHT22;23135;51.078;12.108;2023-06-04T15:02:55;23.80;52.20
37242;DHT22;23135;51.078;12.108;2023-06-04T15:05:21;23.80;54.00
37242;DHT22;23135;51.078;12.108;2023-06-04T15:07:46;23.70;53.50
37242;DHT22;23135;51.078;12.108;2023-06-04T15:10:12;23.60;52.50
37242;DHT22;23135;51.078;12.108;2023-06-04T15:12:38;23.40;51.20
37242;DHT22;23135;51.078;12.108;2023-06-04T15:15:07;23.50;52.60
37242;DHT22;23135;51.078;12.108;2023-06-04T15:17:34;23.50;52.20
37242;DHT22;23135;51.078;12.108;2023-06-04T15:20:00;23.70;53.30
37242;DHT22;23135;51.078;12.108;2023-06-04T15:22:26;23.60;53.80
37242;DHT22;23135;51.078;12.108;2023-06-04T15:24:52;23.30;55.10
37242;DHT22;23135;51.078;12.108;2023-06-04T15:27:18;23.30;55.70
37242;DHT22;23135;51.078;12.108;2023-06-04T15:29:43;23.30;54.40